createdAt,value
2018-04-13T00:00:31.764Z,9.97
2018-04-13T00:02:59.243Z,10.17
2018-04-13T00:05:26.702Z,10.93
2018-04-13T00:07:54.197Z,10.37
2018-04-13T00:10:21.676Z,10.80
2018-04-13T00:12:49.915Z,10.97
2018-04-13T00:15:17.412Z,11.70
2018-04-13T00:17:45.653Z,11.27
2018-04-13T00:20:13.147Z,8.70
2018-04-13T00:22:41.411Z,6.50
2018-04-13T00:25:08.915Z,7.07
2018-04-13T00:27:36.453Z,8.03
2018-04-13T00:30:04.788Z,8.07
2018-04-13T00:32:33.084Z,5.30
2018-04-13T00:35:00.574Z,5.10
2018-04-13T00:37:28.074Z,4.47
2018-04-13T00:39:55.554Z,4.37
2018-04-13T00:42:23.174Z,3.37
2018-04-13T00:44:50.756Z,2.20
2018-04-13T00:47:18.271Z,1.77
2018-04-13T00:49:45.776Z,2.30
2018-04-13T00:52:13.288Z,3.30
2018-04-13T00:54:40.779Z,2.83
2018-04-13T00:57:08.281Z,2.87
2018-04-13T00:59:35.748Z,3.97
2018-04-13T01:02:04.043Z,4.43
2018-04-13T01:04:31.527Z,2.80
2018-04-13T01:06:59.012Z,2.33
2018-04-13T01:09:26.500Z,3.10
2018-04-13T01:11:54.733Z,3.50
2018-04-13T01:14:22.228Z,3.43
2018-04-13T01:16:50.463Z,3.87
2018-04-13T01:19:17.936Z,4.10
2018-04-13T01:21:45.443Z,3.57
2018-04-13T01:24:12.945Z,3.10
2018-04-13T01:26:40.484Z,3.73
2018-04-13T01:29:07.970Z,3.90
2018-04-13T01:31:35.474Z,4.60
2018-04-13T01:34:03.723Z,4.10
2018-04-13T01:36:31.193Z,3.60
2018-04-13T01:38:59.430Z,3.70
2018-04-13T01:41:26.893Z,3.90
2018-04-13T01:43:54.930Z,4.47
2018-04-13T01:46:22.404Z,4.40
2018-04-13T01:48:49.917Z,4.30
2018-04-13T01:51:18.168Z,4.77
2018-04-13T01:53:45.656Z,4.13
2018-04-13T01:56:13.899Z,4.80
2018-04-13T01:58:41.510Z,4.63
2018-04-13T02:01:09.021Z,5.53
2018-04-13T02:03:36.522Z,4.60
2018-04-13T02:06:03.983Z,4.77
2018-04-13T02:08:31.503Z,4.17
2018-04-13T02:10:58.986Z,4.50
2018-04-13T02:13:27.271Z,5.10
2018-04-13T02:15:55.390Z,5.67
2018-04-13T02:18:22.891Z,4.00
2018-04-13T02:20:51.165Z,3.73
2018-04-13T02:23:19.429Z,4.70
2018-04-13T02:25:46.939Z,4.67
2018-04-13T02:28:14.466Z,4.40
2018-04-13T02:30:42.753Z,5.20
2018-04-13T02:33:10.254Z,5.00
2018-04-13T02:35:37.763Z,3.50
2018-04-13T02:38:05.995Z,3.93
2018-04-13T02:40:33.486Z,4.03
2018-04-13T02:43:00.983Z,4.43
2018-04-13T02:45:28.508Z,4.07
2018-04-13T02:47:56.728Z,4.77
2018-04-13T02:50:24.211Z,5.17
2018-04-13T02:52:51.700Z,4.33
2018-04-13T02:55:19.988Z,3.30
2018-04-13T02:57:47.514Z,4.30
2018-04-13T03:00:15.025Z,4.30
2018-04-13T03:02:43.274Z,4.30
2018-04-13T03:05:11.558Z,3.93
2018-04-13T03:07:39.920Z,4.33
2018-04-13T03:10:07.378Z,4.73
2018-04-13T03:12:35.780Z,5.87
2018-04-13T03:15:03.485Z,6.10
2018-04-13T03:17:31.106Z,5.70
2018-04-13T03:19:59.392Z,5.33
2018-04-13T03:22:26.942Z,4.43
2018-04-13T03:24:54.493Z,4.73
2018-04-13T03:27:22.799Z,4.30
2018-04-13T03:29:50.275Z,4.03
2018-04-13T03:32:17.754Z,4.43
2018-04-13T03:34:45.266Z,4.10
2018-04-13T03:37:12.751Z,3.90
2018-04-13T03:39:40.245Z,4.40
2018-04-13T03:42:08.493Z,3.70
2018-04-13T03:44:36.002Z,3.60
2018-04-13T03:47:03.480Z,4.10
2018-04-13T03:49:31.010Z,3.60
2018-04-13T03:51:58.504Z,4.03
2018-04-13T03:54:26.072Z,4.97
2018-04-13T03:56:54.244Z,4.33
2018-04-13T03:59:21.723Z,4.97
2018-04-13T04:01:49.219Z,4.77
2018-04-13T04:04:17.524Z,5.10
2018-04-13T04:06:45.058Z,5.10
2018-04-13T04:09:12.806Z,5.10
2018-04-13T04:11:40.465Z,4.53
2018-04-13T04:14:08.031Z,4.80
2018-04-13T04:16:36.314Z,4.23
2018-04-13T04:19:04.800Z,4.17
2018-04-13T04:21:44.157Z,5.17
2018-04-13T04:24:23.500Z,5.10
2018-04-13T04:26:50.991Z,5.20
2018-04-13T04:29:18.523Z,4.63
2018-04-13T04:31:46.009Z,4.20
2018-04-13T04:34:13.520Z,5.00
2018-04-13T04:36:41.016Z,5.20
2018-04-13T04:39:08.557Z,5.40
2018-04-13T04:41:36.046Z,5.30
2018-04-13T04:44:03.945Z,5.60
2018-04-13T04:46:32.241Z,5.60
2018-04-13T04:48:59.746Z,5.70
2018-04-13T04:51:27.249Z,6.93
2018-04-13T04:53:55.478Z,7.17
2018-04-13T04:56:22.987Z,8.60
2018-04-13T04:58:51.275Z,8.80
2018-04-13T05:01:18.894Z,9.83
2018-04-13T05:03:46.396Z,9.60
2018-04-13T05:06:13.897Z,9.03
2018-04-13T05:08:41.442Z,10.50
2018-04-13T05:11:09.002Z,10.43
2018-04-13T05:13:36.514Z,11.40
2018-04-13T05:16:05.034Z,11.43
2018-04-13T05:18:32.567Z,13.93
2018-04-13T05:21:00.183Z,17.70
2018-04-13T05:23:27.682Z,17.30
2018-04-13T05:25:55.253Z,17.73
2018-04-13T05:28:22.846Z,17.53
2018-04-13T05:30:50.356Z,19.47
2018-04-13T05:33:18.616Z,19.17
2018-04-13T05:35:46.178Z,20.20
2018-04-13T05:38:14.475Z,19.07
2018-04-13T05:40:42.742Z,19.43
2018-04-13T05:43:11.020Z,20.23
2018-04-13T05:45:39.364Z,21.00
2018-04-13T05:48:06.874Z,22.03
2018-04-13T05:50:34.369Z,22.77
2018-04-13T05:53:01.871Z,21.80
2018-04-13T05:55:30.862Z,22.13
2018-04-13T05:57:59.931Z,21.40
2018-04-13T06:00:27.648Z,21.50
2018-04-13T06:02:55.290Z,23.53
2018-04-13T06:05:22.941Z,22.77
2018-04-13T06:07:51.375Z,23.03
2018-04-13T06:10:18.900Z,24.63
2018-04-13T06:12:47.197Z,28.57
2018-04-13T06:15:14.770Z,24.70
2018-04-13T06:17:42.281Z,25.70
2018-04-13T06:20:09.825Z,26.07
2018-04-13T06:22:37.322Z,27.67
2018-04-13T06:25:04.830Z,27.10
2018-04-13T06:27:32.343Z,28.20
2018-04-13T06:30:00.712Z,28.43
2018-04-13T06:32:28.209Z,29.20
2018-04-13T06:34:55.734Z,27.53
2018-04-13T06:37:24.103Z,26.40
2018-04-13T06:39:52.352Z,28.10
2018-04-13T06:42:19.873Z,27.57
2018-04-13T06:44:47.368Z,27.80
2018-04-13T06:47:14.857Z,30.40
2018-04-13T06:49:42.358Z,30.67
2018-04-13T06:52:09.854Z,31.83
2018-04-13T06:54:37.366Z,33.20
2018-04-13T06:57:04.876Z,34.90
2018-04-13T06:59:33.195Z,35.03
2018-04-13T07:02:00.697Z,35.90
2018-04-13T07:04:28.176Z,33.60
2018-04-13T07:06:56.566Z,33.77
2018-04-13T07:09:24.068Z,32.53
2018-04-13T07:11:51.642Z,34.20
2018-04-13T07:14:19.148Z,33.83
2018-04-13T07:16:47.409Z,35.07
2018-04-13T07:19:14.909Z,34.77
2018-04-13T07:21:42.468Z,36.50
2018-04-13T07:24:10.844Z,39.47
2018-04-13T07:26:38.346Z,40.97
2018-04-13T07:29:05.902Z,42.97
2018-04-13T07:31:33.438Z,44.60
2018-04-13T07:34:00.950Z,44.30
2018-04-13T07:36:28.463Z,46.20
2018-04-13T07:38:55.946Z,47.43
2018-04-13T07:41:23.442Z,47.40
2018-04-13T07:43:50.994Z,48.00
2018-04-13T07:46:18.461Z,48.77
2018-04-13T07:48:45.959Z,48.43
2018-04-13T07:51:13.477Z,50.30
2018-04-13T07:53:41.084Z,49.13
2018-04-13T07:56:08.612Z,49.60
2018-04-13T07:58:36.856Z,50.73
2018-04-13T08:01:05.183Z,51.80
2018-04-13T08:03:33.406Z,50.23
2018-04-13T08:06:01.687Z,51.33
2018-04-13T08:08:30.049Z,51.67
2018-04-13T08:10:57.422Z,51.13
2018-04-13T08:13:25.660Z,53.70
2018-04-13T08:15:53.179Z,52.70
2018-04-13T08:18:20.659Z,55.87
2018-04-13T08:20:48.160Z,55.63
2018-04-13T08:23:16.489Z,56.17
2018-04-13T08:25:43.983Z,55.77
2018-04-13T08:28:11.469Z,54.97
2018-04-13T08:30:39.771Z,55.93
2018-04-13T08:33:08.007Z,54.23
2018-04-13T08:35:36.348Z,55.33
2018-04-13T08:38:03.866Z,54.63
2018-04-13T08:40:32.107Z,56.00
2018-04-13T08:42:59.613Z,56.57
2018-04-13T08:45:27.193Z,57.30
2018-04-13T08:47:54.694Z,57.20
2018-04-13T08:50:22.186Z,58.27
2018-04-13T08:52:49.713Z,57.73
2018-04-13T08:55:17.197Z,59.87
2018-04-13T08:57:44.761Z,59.83
2018-04-13T09:00:12.238Z,62.30
2018-04-13T09:02:39.718Z,60.00
2018-04-13T09:05:07.260Z,61.50
2018-04-13T09:07:34.773Z,61.10
2018-04-13T09:10:03.092Z,63.30
2018-04-13T09:12:30.587Z,65.77
2018-04-13T09:14:58.057Z,64.00
2018-04-13T09:17:26.327Z,62.27
2018-04-13T09:19:53.805Z,62.47
2018-04-13T09:22:22.127Z,67.27
2018-04-13T09:24:49.648Z,64.07
2018-04-13T09:27:17.950Z,59.57
2018-04-13T09:29:45.745Z,53.17
2018-04-13T09:32:13.362Z,53.10
2018-04-13T09:34:42.543Z,54.37
2018-04-13T09:37:10.851Z,55.43
2018-04-13T09:39:38.327Z,55.93
2018-04-13T09:42:05.846Z,53.97
2018-04-13T09:44:34.825Z,56.43
2018-04-13T09:47:02.324Z,57.77
2018-04-13T09:49:30.624Z,58.37
2018-04-13T09:51:58.114Z,58.83
2018-04-13T09:54:26.510Z,58.30
2018-04-13T09:56:54.076Z,57.50
2018-04-13T09:59:22.339Z,57.90
2018-04-13T10:01:49.855Z,55.73
2018-04-13T10:04:20.003Z,56.30
2018-04-13T10:06:47.512Z,55.43
2018-04-13T10:09:15.122Z,58.67
2018-04-13T10:11:42.624Z,60.10
2018-04-13T10:14:11.017Z,59.57
2018-04-13T10:16:38.520Z,57.73
2018-04-13T10:19:06.029Z,57.70
2018-04-13T10:21:33.567Z,60.13
2018-04-13T10:24:01.822Z,61.67
2018-04-13T10:26:29.322Z,62.50
2018-04-13T10:28:56.802Z,61.23
2018-04-13T10:31:24.432Z,63.47
2018-04-13T10:33:52.012Z,61.40
2018-04-13T10:36:19.531Z,63.83
2018-04-13T10:38:47.842Z,68.80
2018-04-13T10:41:15.370Z,62.33
2018-04-13T10:43:43.660Z,63.17
2018-04-13T10:46:11.979Z,67.37
2018-04-13T10:48:39.484Z,67.73
2018-04-13T10:51:07.780Z,66.20
2018-04-13T10:53:35.264Z,64.33
2018-04-13T10:56:02.777Z,66.10
2018-04-13T10:58:31.159Z,68.63
2018-04-13T11:00:59.483Z,65.67
2018-04-13T11:03:27.010Z,66.03
2018-04-13T11:05:54.587Z,66.60
2018-04-13T11:08:22.092Z,66.77
2018-04-13T11:10:49.602Z,66.47
2018-04-13T11:13:17.131Z,66.33
2018-04-13T11:15:45.425Z,67.13
2018-04-13T11:18:13.372Z,69.73
2018-04-13T11:20:40.872Z,71.47
2018-04-13T11:23:08.354Z,70.03
2018-04-13T11:25:36.693Z,73.00
2018-04-13T11:28:04.176Z,71.27
2018-04-13T11:30:31.696Z,73.13
2018-04-13T11:32:59.957Z,72.50
2018-04-13T11:35:27.472Z,75.73
2018-04-13T11:37:55.017Z,77.50
2018-04-13T11:40:22.694Z,78.83
2018-04-13T11:42:50.200Z,80.30
2018-04-13T11:45:18.483Z,82.30
2018-04-13T11:47:46.719Z,83.80
2018-04-13T11:50:14.224Z,87.50
2018-04-13T11:52:42.532Z,89.83
2018-04-13T11:55:10.048Z,86.80
2018-04-13T11:57:38.334Z,89.67
2018-04-13T12:00:06.654Z,90.57
2018-04-13T12:02:34.164Z,94.57
2018-04-13T12:05:01.718Z,96.73
2018-04-13T12:07:29.191Z,98.30
2018-04-13T12:09:57.494Z,98.73
2018-04-13T12:12:25.030Z,92.03
2018-04-13T12:14:53.321Z,95.20
2018-04-13T12:17:20.875Z,95.00
2018-04-13T12:19:48.366Z,96.97
2018-04-13T12:22:15.876Z,99.40
2018-04-13T12:24:43.369Z,103.93
2018-04-13T12:27:10.882Z,108.93
2018-04-13T12:29:38.405Z,115.70
2018-04-13T12:32:05.905Z,114.33
2018-04-13T12:34:33.469Z,119.73
2018-04-13T12:37:00.963Z,121.37
2018-04-13T12:39:28.509Z,119.07
2018-04-13T12:41:56.003Z,122.90
2018-04-13T12:44:23.517Z,124.80
2018-04-13T12:46:51.941Z,122.97
2018-04-13T12:49:19.447Z,104.53
2018-04-13T12:51:47.775Z,116.60
2018-04-13T12:54:15.402Z,125.37
2018-04-13T12:56:42.921Z,103.37
2018-04-13T12:59:10.398Z,92.13
2018-04-13T13:01:38.666Z,66.73
2018-04-13T13:04:06.169Z,49.80
2018-04-13T13:06:33.670Z,58.37
2018-04-13T13:09:01.153Z,60.57
2018-04-13T13:11:29.469Z,45.67
2018-04-13T13:13:56.945Z,42.77
2018-04-13T13:16:24.468Z,36.07
2018-04-13T13:18:52.710Z,33.83
2018-04-13T13:21:20.226Z,33.83
2018-04-13T13:23:47.862Z,31.97
2018-04-13T13:26:15.404Z,35.17
2018-04-13T13:28:43.668Z,27.83
2018-04-13T13:31:11.246Z,27.50
2018-04-13T13:33:39.513Z,27.40
2018-04-13T13:36:07.777Z,25.33
2018-04-13T13:38:35.277Z,25.47
2018-04-13T13:41:02.797Z,21.63
2018-04-13T13:43:30.367Z,22.63
2018-04-13T13:45:58.681Z,19.40
2018-04-13T13:48:26.212Z,14.80
2018-04-13T13:50:54.474Z,19.17
2018-04-13T13:53:21.992Z,20.23
2018-04-13T13:55:49.641Z,18.13
2018-04-13T13:58:17.145Z,19.73
2018-04-13T14:00:44.791Z,18.17
2018-04-13T14:03:12.378Z,20.93
2018-04-13T14:05:40.921Z,19.63
2018-04-13T14:08:08.408Z,16.77
2018-04-13T14:10:35.894Z,14.77
2018-04-13T14:13:04.143Z,17.43
2018-04-13T14:15:31.665Z,18.10
2018-04-13T14:17:59.752Z,17.80
2018-04-13T14:20:27.395Z,17.13
2018-04-13T14:22:54.878Z,18.67
2018-04-13T14:25:22.395Z,17.00
2018-04-13T14:27:50.662Z,18.17
2018-04-13T14:30:18.965Z,18.60
2018-04-13T14:32:46.445Z,21.47
2018-04-13T14:35:14.094Z,20.90
2018-04-13T14:37:41.615Z,21.40
2018-04-13T14:40:09.948Z,19.53
2018-04-13T14:42:37.451Z,22.80
2018-04-13T14:45:05.778Z,22.20
2018-04-13T14:47:33.288Z,21.17
2018-04-13T14:50:01.634Z,22.27
2018-04-13T14:52:29.340Z,22.23
2018-04-13T14:54:56.977Z,21.27
2018-04-13T14:57:24.558Z,21.53
2018-04-13T14:59:52.836Z,20.03
2018-04-13T15:02:20.399Z,18.07
2018-04-13T15:04:48.549Z,20.63
2018-04-13T15:07:16.968Z,21.13
2018-04-13T15:09:44.590Z,18.63
2018-04-13T15:12:12.234Z,18.03
2018-04-13T15:14:39.727Z,17.07
2018-04-13T15:17:07.479Z,15.83
2018-04-13T15:19:35.264Z,15.17
2018-04-13T15:22:02.872Z,14.27
2018-04-13T15:24:30.372Z,14.60
2018-04-13T15:26:58.659Z,14.33
2018-04-13T15:29:26.907Z,13.80
2018-04-13T15:31:54.412Z,14.83
2018-04-13T15:34:21.969Z,11.87
2018-04-13T15:36:50.305Z,11.73
2018-04-13T15:39:17.797Z,11.60
2018-04-13T15:41:45.333Z,11.53
2018-04-13T15:44:12.854Z,11.43
2018-04-13T15:46:40.602Z,11.30
2018-04-13T15:49:08.157Z,13.20
2018-04-13T15:51:35.694Z,11.30
2018-04-13T15:54:03.207Z,12.20
2018-04-13T15:56:30.662Z,12.30
2018-04-13T15:58:58.147Z,12.60
2018-04-13T16:01:26.410Z,12.37
2018-04-13T16:03:53.891Z,14.67
2018-04-13T16:06:22.182Z,12.83
2018-04-13T16:08:49.641Z,12.63
2018-04-13T16:11:17.140Z,12.87
2018-04-13T16:13:44.706Z,13.13
2018-04-13T16:16:12.252Z,12.87
2018-04-13T16:18:39.940Z,13.03
2018-04-13T16:21:07.463Z,15.93
2018-04-13T16:23:34.989Z,15.33
2018-04-13T16:26:03.696Z,20.90
2018-04-13T16:28:31.217Z,29.30
2018-04-13T16:30:58.712Z,18.50
2018-04-13T16:33:26.305Z,20.43
2018-04-13T16:35:54.544Z,18.73
2018-04-13T16:38:22.084Z,20.87
2018-04-13T16:40:50.402Z,19.20
2018-04-13T16:43:17.918Z,19.03
2018-04-13T16:45:46.295Z,19.20
2018-04-13T16:48:13.908Z,17.00
2018-04-13T16:50:41.451Z,16.23
2018-04-13T16:53:09.485Z,16.37
2018-04-13T16:55:37.757Z,17.30
2018-04-13T16:58:06.279Z,15.70
2018-04-13T17:00:34.688Z,21.43
2018-04-13T17:03:02.235Z,21.23
2018-04-13T17:05:29.712Z,19.00
2018-04-13T17:07:57.216Z,19.67
2018-04-13T17:10:24.719Z,20.47
2018-04-13T17:12:52.385Z,21.97
2018-04-13T17:15:19.919Z,20.17
2018-04-13T17:17:47.416Z,23.20
2018-04-13T17:20:14.922Z,23.37
2018-04-13T17:22:42.519Z,24.70
2018-04-13T17:25:10.183Z,24.20
2018-04-13T17:27:37.693Z,23.47
2018-04-13T17:30:05.960Z,24.83
2018-04-13T17:32:34.239Z,24.30
2018-04-13T17:35:02.554Z,24.67
2018-04-13T17:37:30.836Z,22.27
2018-04-13T17:39:58.335Z,23.63
2018-04-13T17:42:25.824Z,22.57
2018-04-13T17:44:53.342Z,24.33
2018-04-13T17:47:20.900Z,24.10
2018-04-13T17:49:48.440Z,27.47
2018-04-13T17:52:15.963Z,26.07
2018-04-13T17:54:43.629Z,28.43
2018-04-13T17:57:11.247Z,27.10
2018-04-13T17:59:39.835Z,29.57
2018-04-13T18:02:07.651Z,33.33
2018-04-13T18:04:36.204Z,31.83
2018-04-13T18:07:04.673Z,30.80
2018-04-13T18:09:32.484Z,43.23
2018-04-13T18:12:00.292Z,51.60
2018-04-13T18:14:28.660Z,35.27
2018-04-13T18:16:56.275Z,31.40
2018-04-13T18:19:23.914Z,34.93
2018-04-13T18:21:51.875Z,36.40
2018-04-13T18:24:19.699Z,31.83
2018-04-13T18:26:47.225Z,32.40
2018-04-13T18:29:14.720Z,33.77
2018-04-13T18:31:42.201Z,32.30
2018-04-13T18:34:09.697Z,32.87
2018-04-13T18:36:37.977Z,32.00
2018-04-13T18:39:06.241Z,31.40
2018-04-13T18:41:34.505Z,33.33
2018-04-13T18:44:02.033Z,33.57
2018-04-13T18:46:29.534Z,35.43
2018-04-13T18:48:57.025Z,39.67
2018-04-13T18:51:24.512Z,39.60
2018-04-13T18:53:52.042Z,39.43
2018-04-13T18:56:19.529Z,41.77
2018-04-13T18:58:47.650Z,35.00
2018-04-13T19:01:15.879Z,36.57
2018-04-13T19:03:43.375Z,36.63
2018-04-13T19:06:11.617Z,37.03
2018-04-13T19:08:39.110Z,36.30
2018-04-13T19:11:07.386Z,36.20
2018-04-13T19:13:35.641Z,37.33
2018-04-13T19:16:03.223Z,35.63
2018-04-13T19:18:31.542Z,38.23
2018-04-13T19:20:59.035Z,35.73
2018-04-13T19:23:26.573Z,34.43
2018-04-13T19:25:54.076Z,38.63
2018-04-13T19:28:22.470Z,39.13
2018-04-13T19:30:50.775Z,40.37
2018-04-13T19:33:18.281Z,40.50
2018-04-13T19:35:45.796Z,38.83
2018-04-13T19:38:13.314Z,44.63
2018-04-13T19:40:41.597Z,40.80
2018-04-13T19:43:09.837Z,38.63
2018-04-13T19:45:37.384Z,39.10
2018-04-13T19:48:04.899Z,38.20
2018-04-13T19:50:33.159Z,36.90
2018-04-13T19:53:01.397Z,36.70
2018-04-13T19:55:29.652Z,36.60
2018-04-13T19:57:57.293Z,38.20
2018-04-13T20:00:25.818Z,40.57
2018-04-13T20:02:53.326Z,40.30
2018-04-13T20:05:21.612Z,42.33
2018-04-13T20:07:49.111Z,41.70
2018-04-13T20:10:16.620Z,39.73
2018-04-13T20:12:45.244Z,40.57
2018-04-13T20:15:27.883Z,40.07
2018-04-13T20:17:55.555Z,41.97
2018-04-13T20:20:23.147Z,40.67
2018-04-13T20:22:50.723Z,40.17
2018-04-13T20:25:18.341Z,41.73
2018-04-13T20:27:46.016Z,42.40
2018-04-13T20:30:14.468Z,43.17
2018-04-13T20:32:43.556Z,41.87
2018-04-13T20:35:11.483Z,43.53
2018-04-13T20:37:39.159Z,42.93
2018-04-13T20:40:06.793Z,43.37
2018-04-13T20:42:35.059Z,44.93
2018-04-13T20:45:03.335Z,42.77
2018-04-13T20:47:30.826Z,46.80
2018-04-13T20:49:58.321Z,46.73
2018-04-13T20:52:25.849Z,48.70
2018-04-13T20:54:53.370Z,50.10
2018-04-13T20:57:21.699Z,50.53
2018-04-13T20:59:49.209Z,51.20
2018-04-13T21:02:17.484Z,49.90
2018-04-13T21:04:45.186Z,54.47
2018-04-13T21:07:12.824Z,55.07
2018-04-13T21:09:40.400Z,59.23
2018-04-13T21:12:08.956Z,61.23
2018-04-13T21:14:36.582Z,63.07
2018-04-13T21:17:04.233Z,59.53
2018-04-13T21:19:31.738Z,65.60
2018-04-13T21:21:59.981Z,67.67
2018-04-13T21:24:27.528Z,67.10
2018-04-13T21:26:55.504Z,71.43
2018-04-13T21:29:23.010Z,73.53
2018-04-13T21:31:51.304Z,70.63
2018-04-13T21:34:18.820Z,75.03
2018-04-13T21:36:46.323Z,75.27
2018-04-13T21:39:13.903Z,71.53
2018-04-13T21:41:41.371Z,75.23
2018-04-13T21:44:08.890Z,73.13
2018-04-13T21:46:36.563Z,75.23
2018-04-13T21:49:04.143Z,74.90
2018-04-13T21:51:31.723Z,77.03
2018-04-13T21:53:59.273Z,75.17
2018-04-13T21:56:26.777Z,74.03
2018-04-13T21:58:54.262Z,75.93
2018-04-13T22:01:21.755Z,75.10
2018-04-13T22:03:49.372Z,76.17
2018-04-13T22:06:16.872Z,79.33
2018-04-13T22:08:44.445Z,79.60
2018-04-13T22:11:12.119Z,80.13
2018-04-13T22:13:39.658Z,82.00
2018-04-13T22:16:07.223Z,79.70
2018-04-13T22:18:34.879Z,80.40
2018-04-13T22:21:02.389Z,78.80
2018-04-13T22:23:29.976Z,79.37
2018-04-13T22:25:57.582Z,78.83
2018-04-13T22:28:25.260Z,77.80
2018-04-13T22:30:53.670Z,79.93
2018-04-13T22:33:21.302Z,79.03
2018-04-13T22:35:49.618Z,77.83
2018-04-13T22:38:17.216Z,72.77
2018-04-13T22:40:44.873Z,71.67
2018-04-13T22:43:12.486Z,72.00
2018-04-13T22:45:40.019Z,72.07
2018-04-13T22:48:08.294Z,68.70
2018-04-13T22:50:35.847Z,72.40
2018-04-13T22:53:03.547Z,69.33
2018-04-13T22:55:31.172Z,73.40
2018-04-13T22:57:58.727Z,72.00
2018-04-13T23:00:26.308Z,71.03
2018-04-13T23:02:55.574Z,68.93
2018-04-13T23:05:23.210Z,71.60
2018-04-13T23:07:50.906Z,71.23
2018-04-13T23:10:18.872Z,71.33
2018-04-13T23:12:46.541Z,72.70
2018-04-13T23:15:14.156Z,72.50
2018-04-13T23:17:42.490Z,69.83
2018-04-13T23:20:10.769Z,70.17
2018-04-13T23:22:38.389Z,72.17
2018-04-13T23:25:06.195Z,73.70
2018-04-13T23:27:34.492Z,69.90
2018-04-13T23:30:02.833Z,74.00
2018-04-13T23:32:31.182Z,71.20
2018-04-13T23:34:58.698Z,72.83
2018-04-13T23:37:26.264Z,74.07
2018-04-13T23:39:53.789Z,70.57
2018-04-13T23:42:21.306Z,68.17
2018-04-13T23:44:48.774Z,72.20
2018-04-13T23:47:16.296Z,67.30
2018-04-13T23:49:44.574Z,71.50
2018-04-13T23:52:12.863Z,68.53
2018-04-13T23:54:40.411Z,69.10
2018-04-13T23:57:08.688Z,68.03
2018-04-13T23:59:37.048Z,69.07
